• Join FlightAware (Why Join?)
  • Login
  • US Flag 
04:34AM EDT


 

Airport Tracker/Info


-or-


 

Live Flight TrackerFlight Track Log ✈ SWA3121 ✈ 22-Apr-2013 ✈ KHOU - KOKC

Flight Track Log - Related Links

Times and Time Zones

All times are in EDT time to prevent confusion due to time zone crossing. See the SWA3121 flight status page for this flight to view local times or setup timezone preferences in your user account.

Time Position Orientation Groundspeed Altitude Reporting Facility
EDT Latitude Longitude Course Direction KTS MPH feet Rate Location/Type
11:18PM 29.6503 -95.2464 61° Northeast 175 201 1,900  Level Houston Center
11:19PM 29.6728 -95.2486 355° North 202 232 2,900 2,160 Climbing Houston Center
11:19PM 29.7119 -95.2533 354° North 245 282 4,100 2,040 Climbing Houston Center
11:20PM 29.7428 -95.2567 355° North 238 274 5,000 3,360 Climbing Houston Center
11:21PM 29.8183 -95.2867 341° North 279 321 9,000 3,240 Climbing Houston Center
11:22PM 29.8936 -95.3261 336° Northwest 291 335 11,600 3,000 Climbing Houston Center
11:23PM 29.9831 -95.3714 336° Northwest 342 394 15,100 3,180 Climbing Houston Center
11:24PM 30.0764 -95.4192 336° Northwest 362 417 18,100 2,880 Climbing Houston Center
11:25PM 30.1747 -95.4703 336° Northwest 381 438 21,000 2,700 Climbing Houston Center
11:26PM 30.2758 -95.5219 336° Northwest 393 452 23,700 2,400 Climbing Houston Center
11:27PM 30.3814 -95.5750 337° Northwest 407 468 26,000 2,100 Climbing Houston Center
11:28PM 30.4886 -95.6292 336° Northwest 419 482 28,000 1,980 Climbing Houston Center
11:29PM 30.6014 -95.6853 337° Northwest 433 498 30,000 2,460 Climbing Houston Center
11:30PM 30.7311 -95.7569 335° Northwest 430 495 33,100 2,700 Climbing Houston Center
11:31PM 30.8328 -95.8125 335° Northwest 411 473 35,600 2,040 Climbing Houston Center
11:32PM 30.9339 -95.8656 336° Northwest 402 463 37,300 1,560 Climbing Houston Center
11:33PM 31.0336 -95.9194 335° Northwest 397 457 38,800 1,320 Climbing Houston Center
11:34PM 31.1325 -95.9711 336° Northwest 391 450 40,000 660 Climbing Houston Center
11:35PM 31.2158 -96.0019 342° North 390 449 40,000  Level Fort Worth Center
11:36PM 31.3208 -96.0442 341° North 400 460 40,000  Level Fort Worth Center
11:37PM 31.4256 -96.0842 342° North 400 460 40,000  Level Fort Worth Center
11:38PM 31.5283 -96.1242 342° North 395 455 40,000  Level Fort Worth Center
11:39PM 31.6308 -96.1642 342° North 388 447 40,000  Level Fort Worth Center
11:40PM 31.7358 -96.2042 342° North 395 455 40,000  Level Fort Worth Center
11:41PM 31.8406 -96.2469 341° North 389 448 40,000  Level Fort Worth Center
11:42PM 31.9431 -96.2872 342° North 389 448 40,000  Level Fort Worth Center
11:43PM 32.0481 -96.3275 342° North 389 448 40,000  Level Fort Worth Center
11:44PM 32.1422 -96.3681 340° North 389 448 40,000  Level Fort Worth Center
11:45PM 32.2511 -96.4086 343° North 395 455 40,000  Level Fort Worth Center
11:46PM 32.3558 -96.4469 343° North 395 455 40,000  Level Fort Worth Center
11:47PM 32.4606 -96.4875 342° North 395 455 40,000  Level Fort Worth Center
11:48PM 32.5672 -96.5283 342° North 395 455 40,000  Level Fort Worth Center
11:49PM 32.6739 -96.5669 343° North 395 455 40,000  Level Fort Worth Center
11:50PM 32.7767 -96.6081 341° North 395 455 40,000  Level Fort Worth Center
11:51PM 32.8833 -96.6464 343° North 390 449 40,000  Level Fort Worth Center
11:52PM 32.9900 -96.6878 342° North 397 457 40,000  Level Fort Worth Center
11:53PM 33.0986 -96.7314 341° North 402 463 40,000  Level Fort Worth Center
11:54PM 33.2139 -96.7753 342° North 407 468 40,000  Level Fort Worth Center
11:55PM 33.3225 -96.8167 342° North 402 463 40,000 -360 Level Fort Worth Center
11:56PM 33.4311 -96.8608 341° North 402 463 39,300 -900 Descending Fort Worth Center
11:57PM 33.5400 -96.9050 341° North 402 463 38,300 -960 Descending Fort Worth Center
11:58PM 33.6467 -96.9469 342° North 402 463 37,400 -1,380 Descending Fort Worth Center
11:59PM 33.7511 -96.9864 343° North 397 457 35,600 -2,580 Descending Fort Worth Center
12:00AM 33.8578 -97.0283 342° North 397 457 32,300 -3,060 Descending Fort Worth Center
12:01AM 33.9664 -97.0703 342° North 402 463 29,500 -2,040 Descending Fort Worth Center
12:02AM 34.0769 -97.1150 341° North 410 472 28,300 -1,860 Descending Fort Worth Center
12:03AM 34.1753 -97.1575 340° North 410 472 25,800 -3,060 Descending Fort Worth Center
12:04AM 34.2900 -97.2022 342° North 416 479 22,200 -3,420 Descending Fort Worth Center
12:05AM 34.4006 -97.2422 343° North 416 479 19,000 -3,300 Descending Fort Worth Center
12:06AM 34.5072 -97.2775 345° North 410 472 15,600 -3,300 Descending Fort Worth Center
12:07AM 34.6094 -97.3175 342° North 396 456 12,500 -3,120 Descending Fort Worth Center
12:07AM 34.6636 -97.3353 345° North 379 436 11,100 -1,500 Descending Fort Worth Center
12:08AM 34.7136 -97.3556 342° North 386 444 11,000 -720 Descending Fort Worth Center
12:08AM 34.7742 -97.3756 345° North 378 435 10,400 -1,020 Descending Fort Worth Center
12:09AM 34.8097 -97.3933 338° Northwest 374 430 10,000 -720 Descending Fort Worth Center
12:09AM 34.8619 -97.4136 342° North 316 364 9,700 -900 Descending Fort Worth Center
12:10AM 34.8889 -97.4236 343° North 341 392 9,100 -1,380 Descending Fort Worth Center
12:10AM 34.9389 -97.4464 340° North 289 333 8,300 -1,500 Descending Fort Worth Center
12:11AM 34.9683 -97.4567 344° North 310 357 7,600 -1,740 Descending Fort Worth Center
12:11AM 35.0183 -97.4794 340° North 295 339 6,600 -1,500 Descending Fort Worth Center
12:12AM 35.0475 -97.4897 344° North 298 343 6,100 -1,800 Descending Fort Worth Center
12:12AM 35.0956 -97.5125 339° North 298 343 4,800 -2,040 Descending Fort Worth Center
12:13AM 35.1267 -97.5228 345° North 298 343 4,100 -1,380 Descending Fort Worth Center
12:13AM 35.1767 -97.5456 340° North 311 358 3,400 -840 Descending Fort Worth Center
12:14AM 35.2081 -97.5558 345° North 303 349 3,300 -420 Descending Fort Worth Center
12:14AM 35.2517 -97.5789 337° Northwest 287 330 3,000 -240 Descending Fort Worth Center
12:15AM 35.2767 -97.5864 346° North 287 330 3,100 -420 Climbing Fort Worth Center
12:15AM 35.3103 -97.5967 346° North 181 208 2,600 -900 Descending Fort Worth Center
12:16AM 35.3331 -97.5942 North 227 261 2,200 -900 Descending Fort Worth Center
12:16AM 35.3539 -97.5942 360° North 136 157 1,700 -840 Descending Fort Worth Center
12:17AM 35.3747 -97.5944 359° North 185 213 1,400 -360 Descending Fort Worth Center
12:18AM 35.4206 -97.6047 350° North 176 203 1,200 4,800 Descending Fort Worth Center
12:19AM 35.4686 -97.6097 355° North 176 203 11,000 4,860 Climbing Fort Worth Center
12:20AM 35.5144 -97.6175 352° North 176 203 11,000  Level Fort Worth Center
12:21AM 35.5625 -97.6228 355° North 176 203 11,000  Level Fort Worth Center
12:22AM 35.5708 -97.6253 346° North 176 203 11,000  Level Fort Worth Center